sensor_id;sensor_type;location;lat;lon;timestamp;P1;durP1;ratioP1;P2;durP2;ratioP2
64915;SDS011;51427;-27.442;153.014;2022-12-29T00:00:05;8.15;;;2.20;;
64915;SDS011;51427;-27.442;153.014;2022-12-29T00:02:33;11.63;;;2.50;;
64915;SDS011;51427;-27.442;153.014;2022-12-29T00:05:01;7.13;;;2.25;;
64915;SDS011;51427;-27.442;153.014;2022-12-29T00:07:28;8.48;;;2.22;;
64915;SDS011;51427;-27.442;153.014;2022-12-29T00:09:56;13.48;;;2.92;;
64915;SDS011;51427;-27.442;153.014;2022-12-29T00:12:23;12.20;;;3.15;;
64915;SDS011;51427;-27.442;153.014;2022-12-29T00:14:50;10.80;;;2.30;;
64915;SDS011;51427;-27.442;153.014;2022-12-29T00:17:35;10.23;;;1.80;;
64915;SDS011;51427;-27.442;153.014;2022-12-29T00:20:02;10.43;;;2.15;;
64915;SDS011;51427;-27.442;153.014;2022-12-29T00:22:48;8.55;;;2.58;;
64915;SDS011;51427;-27.442;153.014;2022-12-29T00:25:35;7.38;;;1.80;;
64915;SDS011;51427;-27.442;153.014;2022-12-29T00:28:20;7.82;;;2.10;;
64915;SDS011;51427;-27.442;153.014;2022-12-29T00:31:07;9.95;;;2.20;;
64915;SDS011;51427;-27.442;153.014;2022-12-29T00:33:55;8.40;;;2.28;;
64915;SDS011;51427;-27.442;153.014;2022-12-29T00:36:40;6.27;;;2.47;;
64915;SDS011;51427;-27.442;153.014;2022-12-29T00:39:11;9.80;;;2.33;;
64915;SDS011;51427;-27.442;153.014;2022-12-29T00:42:06;7.07;;;2.35;;
64915;SDS011;51427;-27.442;153.014;2022-12-29T00:44:52;8.98;;;2.22;;
64915;SDS011;51427;-27.442;153.014;2022-12-29T00:47:20;5.43;;;1.88;;
64915;SDS011;51427;-27.442;153.014;2022-12-29T00:49:47;8.85;;;2.30;;
64915;SDS011;51427;-27.442;153.014;2022-12-29T00:52:14;7.05;;;2.00;;
64915;SDS011;51427;-27.442;153.014;2022-12-29T00:54:41;8.55;;;2.55;;
64915;SDS011;51427;-27.442;153.014;2022-12-29T00:57:10;9.15;;;2.40;;
64915;SDS011;51427;-27.442;153.014;2022-12-29T00:59:38;9.13;;;2.55;;
64915;SDS011;51427;-27.442;153.014;2022-12-29T01:02:07;12.88;;;2.35;;
64915;SDS011;51427;-27.442;153.014;2022-12-29T01:04:36;9.85;;;2.58;;
64915;SDS011;51427;-27.442;153.014;2022-12-29T01:07:03;9.57;;;2.40;;
64915;SDS011;51427;-27.442;153.014;2022-12-29T01:09:31;8.75;;;2.10;;
64915;SDS011;51427;-27.442;153.014;2022-12-29T01:12:16;7.90;;;1.80;;
64915;SDS011;51427;-27.442;153.014;2022-12-29T01:15:03;11.43;;;2.22;;
64915;SDS011;51427;-27.442;153.014;2022-12-29T01:17:31;3.33;;;1.60;;
64915;SDS011;51427;-27.442;153.014;2022-12-29T01:19:58;7.88;;;2.05;;
64915;SDS011;51427;-27.442;153.014;2022-12-29T01:22:26;10.50;;;2.20;;
64915;SDS011;51427;-27.442;153.014;2022-12-29T01:24:54;5.20;;;1.70;;
64915;SDS011;51427;-27.442;153.014;2022-12-29T01:27:21;7.00;;;1.80;;
64915;SDS011;51427;-27.442;153.014;2022-12-29T01:29:48;7.20;;;1.88;;
64915;SDS011;51427;-27.442;153.014;2022-12-29T01:32:15;11.43;;;2.60;;
64915;SDS011;51427;-27.442;153.014;2022-12-29T01:34:43;7.82;;;2.15;;
64915;SDS011;51427;-27.442;153.014;2022-12-29T01:37:10;6.57;;;1.65;;
64915;SDS011;51427;-27.442;153.014;2022-12-29T01:39:38;5.75;;;1.90;;
64915;SDS011;51427;-27.442;153.014;2022-12-29T01:42:05;7.30;;;1.85;;
64915;SDS011;51427;-27.442;153.014;2022-12-29T01:44:54;8.50;;;2.50;;
64915;SDS011;51427;-27.442;153.014;2022-12-29T01:47:27;7.72;;;2.03;;
64915;SDS011;51427;-27.442;153.014;2022-12-29T01:49:59;6.70;;;2.05;;
64915;SDS011;51427;-27.442;153.014;2022-12-29T01:52:31;9.10;;;2.33;;
64915;SDS011;51427;-27.442;153.014;2022-12-29T01:55:01;7.07;;;1.70;;
64915;SDS011;51427;-27.442;153.014;2022-12-29T01:57:32;6.47;;;2.08;;
64915;SDS011;51427;-27.442;153.014;2022-12-29T02:00:07;6.40;;;1.70;;
64915;SDS011;51427;-27.442;153.014;2022-12-29T02:02:37;6.85;;;1.88;;
64915;SDS011;51427;-27.442;153.014;2022-12-29T02:05:11;5.78;;;1.65;;
64915;SDS011;51427;-27.442;153.014;2022-12-29T02:08:01;10.45;;;2.20;;
64915;SDS011;51427;-27.442;153.014;2022-12-29T02:10:30;5.55;;;2.03;;
64915;SDS011;51427;-27.442;153.014;2022-12-29T02:12:59;8.25;;;1.98;;
64915;SDS011;51427;-27.442;153.014;2022-12-29T02:15:42;6.90;;;1.70;;
64915;SDS011;51427;-27.442;153.014;2022-12-29T02:18:21;9.73;;;2.13;;
64915;SDS011;51427;-27.442;153.014;2022-12-29T02:21:24;8.25;;;1.70;;
64915;SDS011;51427;-27.442;153.014;2022-12-29T02:24:04;11.68;;;2.22;;
64915;SDS011;51427;-27.442;153.014;2022-12-29T02:35:31;10.00;;;2.45;;
64915;SDS011;51427;-27.442;153.014;2022-12-29T02:40:57;8.38;;;2.33;;
64915;SDS011;51427;-27.442;153.014;2022-12-29T02:46:19;10.85;;;2.60;;
64915;SDS011;51427;-27.442;153.014;2022-12-29T02:51:43;11.25;;;2.50;;
64915;SDS011;51427;-27.442;153.014;2022-12-29T02:54:11;10.70;;;2.63;;
64915;SDS011;51427;-27.442;153.014;2022-12-29T02:56:56;8.77;;;1.88;;
64915;SDS011;51427;-27.442;153.014;2022-12-29T02:59:23;6.97;;;2.35;;
64915;SDS011;51427;-27.442;153.014;2022-12-29T03:15:58;9.13;;;2.05;;
64915;SDS011;51427;-27.442;153.014;2022-12-29T03:24:13;7.43;;;1.88;;
64915;SDS011;51427;-27.442;153.014;2022-12-29T03:26:41;8.02;;;2.20;;
64915;SDS011;51427;-27.442;153.014;2022-12-29T03:29:11;6.47;;;2.08;;
64915;SDS011;51427;-27.442;153.014;2022-12-29T03:31:41;8.82;;;2.22;;
64915;SDS011;51427;-27.442;153.014;2022-12-29T03:34:09;8.60;;;2.40;;
64915;SDS011;51427;-27.442;153.014;2022-12-29T03:36:40;9.50;;;2.35;;
64915;SDS011;51427;-27.442;153.014;2022-12-29T03:39:13;9.65;;;2.10;;
64915;SDS011;51427;-27.442;153.014;2022-12-29T03:41:41;9.50;;;2.63;;
64915;SDS011;51427;-27.442;153.014;2022-12-29T03:44:11;13.07;;;2.80;;
64915;SDS011;51427;-27.442;153.014;2022-12-29T03:46:39;8.38;;;2.40;;
64915;SDS011;51427;-27.442;153.014;2022-12-29T03:49:06;8.40;;;2.38;;
64915;SDS011;51427;-27.442;153.014;2022-12-29T03:51:33;9.70;;;2.85;;
64915;SDS011;51427;-27.442;153.014;2022-12-29T03:54:02;8.88;;;2.53;;
64915;SDS011;51427;-27.442;153.014;2022-12-29T03:56:29;11.23;;;2.88;;
64915;SDS011;51427;-27.442;153.014;2022-12-29T03:58:56;12.75;;;3.60;;
64915;SDS011;51427;-27.442;153.014;2022-12-29T04:01:23;14.15;;;3.00;;
64915;SDS011;51427;-27.442;153.014;2022-12-29T04:03:51;10.45;;;2.65;;
64915;SDS011;51427;-27.442;153.014;2022-12-29T04:06:18;8.05;;;2.20;;
64915;SDS011;51427;-27.442;153.014;2022-12-29T04:08:45;7.00;;;2.50;;
64915;SDS011;51427;-27.442;153.014;2022-12-29T04:11:12;10.02;;;2.33;;
64915;SDS011;51427;-27.442;153.014;2022-12-29T04:13:40;9.07;;;2.83;;
64915;SDS011;51427;-27.442;153.014;2022-12-29T04:16:07;12.02;;;2.70;;
64915;SDS011;51427;-27.442;153.014;2022-12-29T04:18:34;12.10;;;2.90;;
64915;SDS011;51427;-27.442;153.014;2022-12-29T04:21:01;11.18;;;3.22;;
64915;SDS011;51427;-27.442;153.014;2022-12-29T04:23:30;13.63;;;2.97;;
64915;SDS011;51427;-27.442;153.014;2022-12-29T04:25:58;6.55;;;2.30;;
64915;SDS011;51427;-27.442;153.014;2022-12-29T04:28:26;9.20;;;2.58;;
64915;SDS011;51427;-27.442;153.014;2022-12-29T04:30:54;15.52;;;3.33;;
64915;SDS011;51427;-27.442;153.014;2022-12-29T04:33:21;10.35;;;2.05;;
64915;SDS011;51427;-27.442;153.014;2022-12-29T04:35:49;8.88;;;2.53;;
64915;SDS011;51427;-27.442;153.014;2022-12-29T04:38:19;12.57;;;3.20;;
64915;SDS011;51427;-27.442;153.014;2022-12-29T04:40:48;7.43;;;2.47;;
64915;SDS011;51427;-27.442;153.014;2022-12-29T04:43:16;7.47;;;1.92;;
64915;SDS011;51427;-27.442;153.014;2022-12-29T04:45:47;6.78;;;2.28;;
64915;SDS011;51427;-27.442;153.014;2022-12-29T04:48:15;12.88;;;2.40;;
64915;SDS011;51427;-27.442;153.014;2022-12-29T04:50:42;10.13;;;2.75;;
64915;SDS011;51427;-27.442;153.014;2022-12-29T04:53:10;7.53;;;2.17;;
64915;SDS011;51427;-27.442;153.014;2022-12-29T04:55:37;10.45;;;3.17;;
64915;SDS011;51427;-27.442;153.014;2022-12-29T04:58:04;10.70;;;2.70;;
64915;SDS011;51427;-27.442;153.014;2022-12-29T05:00:32;9.18;;;2.50;;
64915;SDS011;51427;-27.442;153.014;2022-12-29T05:02:59;10.90;;;2.50;;
64915;SDS011;51427;-27.442;153.014;2022-12-29T05:05:26;8.70;;;2.60;;
64915;SDS011;51427;-27.442;153.014;2022-12-29T05:07:53;8.88;;;2.30;;
64915;SDS011;51427;-27.442;153.014;2022-12-29T05:10:21;10.90;;;2.70;;
64915;SDS011;51427;-27.442;153.014;2022-12-29T05:12:48;9.93;;;2.33;;
64915;SDS011;51427;-27.442;153.014;2022-12-29T05:15:15;11.45;;;2.53;;
64915;SDS011;51427;-27.442;153.014;2022-12-29T05:17:42;9.50;;;2.85;;
64915;SDS011;51427;-27.442;153.014;2022-12-29T05:20:10;11.63;;;2.67;;
64915;SDS011;51427;-27.442;153.014;2022-12-29T05:22:37;7.57;;;2.75;;
64915;SDS011;51427;-27.442;153.014;2022-12-29T05:25:04;10.80;;;2.72;;
64915;SDS011;51427;-27.442;153.014;2022-12-29T05:27:32;10.82;;;2.88;;
64915;SDS011;51427;-27.442;153.014;2022-12-29T05:29:59;12.77;;;2.40;;
64915;SDS011;51427;-27.442;153.014;2022-12-29T05:32:27;9.77;;;2.75;;
64915;SDS011;51427;-27.442;153.014;2022-12-29T05:34:54;8.35;;;2.83;;
64915;SDS011;51427;-27.442;153.014;2022-12-29T05:37:21;10.43;;;2.58;;
64915;SDS011;51427;-27.442;153.014;2022-12-29T05:39:48;9.60;;;2.60;;
64915;SDS011;51427;-27.442;153.014;2022-12-29T05:42:15;13.98;;;3.22;;
64915;SDS011;51427;-27.442;153.014;2022-12-29T05:44:43;10.98;;;2.45;;
64915;SDS011;51427;-27.442;153.014;2022-12-29T05:47:10;8.77;;;2.70;;
64915;SDS011;51427;-27.442;153.014;2022-12-29T05:49:37;7.63;;;2.10;;
64915;SDS011;51427;-27.442;153.014;2022-12-29T05:52:04;6.05;;;2.20;;
64915;SDS011;51427;-27.442;153.014;2022-12-29T05:54:31;5.88;;;2.42;;
64915;SDS011;51427;-27.442;153.014;2022-12-29T05:56:59;10.32;;;2.47;;
64915;SDS011;51427;-27.442;153.014;2022-12-29T05:59:26;9.50;;;1.95;;
64915;SDS011;51427;-27.442;153.014;2022-12-29T06:01:53;7.55;;;2.35;;
64915;SDS011;51427;-27.442;153.014;2022-12-29T06:04:20;9.73;;;2.25;;
64915;SDS011;51427;-27.442;153.014;2022-12-29T06:06:47;7.85;;;2.25;;
64915;SDS011;51427;-27.442;153.014;2022-12-29T06:09:15;4.65;;;1.55;;
64915;SDS011;51427;-27.442;153.014;2022-12-29T06:11:42;5.45;;;2.08;;
64915;SDS011;51427;-27.442;153.014;2022-12-29T06:14:09;9.10;;;2.50;;
64915;SDS011;51427;-27.442;153.014;2022-12-29T06:16:36;11.63;;;2.58;;
64915;SDS011;51427;-27.442;153.014;2022-12-29T06:19:04;4.07;;;1.77;;
64915;SDS011;51427;-27.442;153.014;2022-12-29T06:21:31;7.07;;;2.30;;
64915;SDS011;51427;-27.442;153.014;2022-12-29T06:23:58;7.18;;;2.15;;
64915;SDS011;51427;-27.442;153.014;2022-12-29T06:26:25;11.02;;;2.78;;
64915;SDS011;51427;-27.442;153.014;2022-12-29T06:28:52;7.50;;;2.90;;
64915;SDS011;51427;-27.442;153.014;2022-12-29T06:31:20;12.25;;;3.30;;
64915;SDS011;51427;-27.442;153.014;2022-12-29T06:33:47;10.63;;;3.05;;
64915;SDS011;51427;-27.442;153.014;2022-12-29T06:36:14;9.82;;;3.25;;
64915;SDS011;51427;-27.442;153.014;2022-12-29T06:38:41;13.88;;;3.65;;
64915;SDS011;51427;-27.442;153.014;2022-12-29T06:41:09;12.73;;;3.20;;
64915;SDS011;51427;-27.442;153.014;2022-12-29T06:43:36;14.98;;;3.63;;
64915;SDS011;51427;-27.442;153.014;2022-12-29T06:46:04;11.00;;;3.20;;
64915;SDS011;51427;-27.442;153.014;2022-12-29T06:48:31;15.13;;;3.50;;
64915;SDS011;51427;-27.442;153.014;2022-12-29T06:50:59;16.45;;;3.95;;
64915;SDS011;51427;-27.442;153.014;2022-12-29T06:53:26;12.30;;;3.60;;
64915;SDS011;51427;-27.442;153.014;2022-12-29T06:55:53;14.98;;;3.40;;
64915;SDS011;51427;-27.442;153.014;2022-12-29T06:58:22;17.05;;;4.38;;
64915;SDS011;51427;-27.442;153.014;2022-12-29T07:00:49;8.55;;;3.67;;
64915;SDS011;51427;-27.442;153.014;2022-12-29T07:03:16;12.20;;;3.92;;
64915;SDS011;51427;-27.442;153.014;2022-12-29T07:05:43;14.18;;;4.25;;
64915;SDS011;51427;-27.442;153.014;2022-12-29T07:08:10;16.73;;;4.88;;
64915;SDS011;51427;-27.442;153.014;2022-12-29T07:10:38;11.50;;;4.20;;
64915;SDS011;51427;-27.442;153.014;2022-12-29T07:13:05;12.60;;;4.32;;
64915;SDS011;51427;-27.442;153.014;2022-12-29T07:15:38;11.10;;;4.13;;
64915;SDS011;51427;-27.442;153.014;2022-12-29T07:18:06;16.83;;;4.15;;
64915;SDS011;51427;-27.442;153.014;2022-12-29T07:20:33;14.32;;;4.50;;
64915;SDS011;51427;-27.442;153.014;2022-12-29T07:23:00;16.83;;;4.68;;
64915;SDS011;51427;-27.442;153.014;2022-12-29T07:25:29;12.15;;;4.00;;
64915;SDS011;51427;-27.442;153.014;2022-12-29T07:27:56;18.85;;;4.53;;
64915;SDS011;51427;-27.442;153.014;2022-12-29T07:30:23;16.92;;;4.55;;
64915;SDS011;51427;-27.442;153.014;2022-12-29T07:32:50;13.02;;;4.40;;
64915;SDS011;51427;-27.442;153.014;2022-12-29T07:35:18;12.63;;;4.22;;
64915;SDS011;51427;-27.442;153.014;2022-12-29T07:37:45;17.65;;;4.45;;
64915;SDS011;51427;-27.442;153.014;2022-12-29T07:40:12;15.32;;;4.13;;
64915;SDS011;51427;-27.442;153.014;2022-12-29T07:42:40;15.20;;;4.60;;
64915;SDS011;51427;-27.442;153.014;2022-12-29T07:45:07;19.15;;;4.55;;
64915;SDS011;51427;-27.442;153.014;2022-12-29T07:47:35;20.73;;;4.45;;
64915;SDS011;51427;-27.442;153.014;2022-12-29T07:50:03;17.55;;;4.18;;
64915;SDS011;51427;-27.442;153.014;2022-12-29T07:52:31;10.63;;;4.13;;
64915;SDS011;51427;-27.442;153.014;2022-12-29T07:54:59;14.55;;;3.95;;
64915;SDS011;51427;-27.442;153.014;2022-12-29T07:57:26;12.82;;;4.15;;
64915;SDS011;51427;-27.442;153.014;2022-12-29T07:59:53;11.50;;;3.35;;
64915;SDS011;51427;-27.442;153.014;2022-12-29T08:02:20;10.98;;;3.10;;
64915;SDS011;51427;-27.442;153.014;2022-12-29T08:04:47;9.93;;;3.63;;
64915;SDS011;51427;-27.442;153.014;2022-12-29T08:07:15;9.45;;;3.10;;
64915;SDS011;51427;-27.442;153.014;2022-12-29T08:09:42;7.80;;;2.80;;
64915;SDS011;51427;-27.442;153.014;2022-12-29T08:12:09;10.23;;;2.90;;
64915;SDS011;51427;-27.442;153.014;2022-12-29T08:14:37;11.02;;;2.90;;
64915;SDS011;51427;-27.442;153.014;2022-12-29T08:17:04;13.65;;;3.47;;
64915;SDS011;51427;-27.442;153.014;2022-12-29T08:19:31;9.93;;;2.88;;
64915;SDS011;51427;-27.442;153.014;2022-12-29T08:21:59;12.70;;;3.30;;
64915;SDS011;51427;-27.442;153.014;2022-12-29T08:24:26;10.23;;;2.75;;
64915;SDS011;51427;-27.442;153.014;2022-12-29T08:26:53;9.88;;;3.38;;
64915;SDS011;51427;-27.442;153.014;2022-12-29T08:29:20;7.80;;;2.75;;
64915;SDS011;51427;-27.442;153.014;2022-12-29T08:31:48;8.82;;;3.30;;
64915;SDS011;51427;-27.442;153.014;2022-12-29T08:34:15;11.07;;;3.17;;
64915;SDS011;51427;-27.442;153.014;2022-12-29T08:36:42;14.02;;;3.60;;
64915;SDS011;51427;-27.442;153.014;2022-12-29T08:39:09;13.38;;;3.88;;
64915;SDS011;51427;-27.442;153.014;2022-12-29T08:41:37;12.02;;;3.33;;
64915;SDS011;51427;-27.442;153.014;2022-12-29T08:44:04;14.45;;;3.72;;
64915;SDS011;51427;-27.442;153.014;2022-12-29T08:46:31;13.23;;;3.85;;
64915;SDS011;51427;-27.442;153.014;2022-12-29T08:48:59;9.43;;;3.63;;
64915;SDS011;51427;-27.442;153.014;2022-12-29T08:51:26;14.50;;;3.88;;
64915;SDS011;51427;-27.442;153.014;2022-12-29T08:53:53;14.25;;;3.78;;
64915;SDS011;51427;-27.442;153.014;2022-12-29T08:56:20;15.90;;;4.78;;
64915;SDS011;51427;-27.442;153.014;2022-12-29T08:58:49;20.45;;;4.38;;
64915;SDS011;51427;-27.442;153.014;2022-12-29T09:01:17;19.33;;;4.95;;
64915;SDS011;51427;-27.442;153.014;2022-12-29T09:03:46;15.05;;;4.03;;
64915;SDS011;51427;-27.442;153.014;2022-12-29T09:06:14;15.75;;;4.47;;
64915;SDS011;51427;-27.442;153.014;2022-12-29T09:08:43;20.83;;;5.10;;
64915;SDS011;51427;-27.442;153.014;2022-12-29T09:13:41;15.07;;;4.75;;
64915;SDS011;51427;-27.442;153.014;2022-12-29T09:16:08;12.63;;;4.40;;
64915;SDS011;51427;-27.442;153.014;2022-12-29T09:18:36;16.00;;;4.38;;
64915;SDS011;51427;-27.442;153.014;2022-12-29T09:21:04;12.48;;;4.30;;
64915;SDS011;51427;-27.442;153.014;2022-12-29T09:23:32;17.40;;;4.25;;
64915;SDS011;51427;-27.442;153.014;2022-12-29T09:25:59;14.50;;;3.88;;
64915;SDS011;51427;-27.442;153.014;2022-12-29T09:28:27;11.68;;;4.05;;
64915;SDS011;51427;-27.442;153.014;2022-12-29T09:30:54;16.70;;;4.53;;
64915;SDS011;51427;-27.442;153.014;2022-12-29T09:33:22;8.52;;;3.85;;
64915;SDS011;51427;-27.442;153.014;2022-12-29T09:35:51;15.60;;;4.15;;
64915;SDS011;51427;-27.442;153.014;2022-12-29T09:38:21;15.77;;;4.97;;
64915;SDS011;51427;-27.442;153.014;2022-12-29T09:40:56;11.40;;;3.80;;
64915;SDS011;51427;-27.442;153.014;2022-12-29T09:52:30;11.88;;;3.63;;
64915;SDS011;51427;-27.442;153.014;2022-12-29T09:55:03;10.05;;;3.13;;
64915;SDS011;51427;-27.442;153.014;2022-12-29T10:00:20;12.40;;;3.67;;
64915;SDS011;51427;-27.442;153.014;2022-12-29T10:02:51;7.60;;;2.72;;
64915;SDS011;51427;-27.442;153.014;2022-12-29T10:05:35;11.50;;;3.38;;
64915;SDS011;51427;-27.442;153.014;2022-12-29T10:22:22;11.93;;;3.58;;
64915;SDS011;51427;-27.442;153.014;2022-12-29T10:24:35;10.43;;;3.10;;
64915;SDS011;51427;-27.442;153.014;2022-12-29T10:27:05;8.88;;;2.70;;
64915;SDS011;51427;-27.442;153.014;2022-12-29T10:29:43;10.32;;;3.15;;
64915;SDS011;51427;-27.442;153.014;2022-12-29T10:32:21;9.85;;;2.70;;
64915;SDS011;51427;-27.442;153.014;2022-12-29T10:35:33;9.85;;;2.97;;
64915;SDS011;51427;-27.442;153.014;2022-12-29T10:43:28;8.60;;;2.67;;
64915;SDS011;51427;-27.442;153.014;2022-12-29T10:46:03;5.70;;;2.33;;
64915;SDS011;51427;-27.442;153.014;2022-12-29T10:48:35;8.35;;;2.55;;
64915;SDS011;51427;-27.442;153.014;2022-12-29T10:51:04;10.52;;;2.50;;
64915;SDS011;51427;-27.442;153.014;2022-12-29T10:53:43;10.82;;;3.58;;
64915;SDS011;51427;-27.442;153.014;2022-12-29T10:59:24;8.23;;;2.83;;
64915;SDS011;51427;-27.442;153.014;2022-12-29T11:04:25;11.05;;;2.50;;
64915;SDS011;51427;-27.442;153.014;2022-12-29T11:07:15;7.47;;;2.75;;
64915;SDS011;51427;-27.442;153.014;2022-12-29T11:09:44;9.73;;;2.90;;
64915;SDS011;51427;-27.442;153.014;2022-12-29T11:12:22;9.70;;;2.60;;
64915;SDS011;51427;-27.442;153.014;2022-12-29T11:15:32;8.40;;;3.00;;
64915;SDS011;51427;-27.442;153.014;2022-12-29T11:17:45;6.97;;;2.28;;
64915;SDS011;51427;-27.442;153.014;2022-12-29T11:20:36;11.48;;;3.20;;
64915;SDS011;51427;-27.442;153.014;2022-12-29T11:23:24;10.07;;;2.75;;
64915;SDS011;51427;-27.442;153.014;2022-12-29T11:26:11;7.20;;;2.45;;
64915;SDS011;51427;-27.442;153.014;2022-12-29T11:28:39;8.63;;;2.50;;
64915;SDS011;51427;-27.442;153.014;2022-12-29T11:31:09;9.05;;;1.92;;
64915;SDS011;51427;-27.442;153.014;2022-12-29T11:33:37;6.97;;;2.05;;
64915;SDS011;51427;-27.442;153.014;2022-12-29T11:38:51;5.47;;;2.00;;
64915;SDS011;51427;-27.442;153.014;2022-12-29T11:41:24;8.93;;;2.50;;
64915;SDS011;51427;-27.442;153.014;2022-12-29T11:43:55;6.47;;;2.83;;
64915;SDS011;51427;-27.442;153.014;2022-12-29T11:46:34;7.47;;;2.55;;
64915;SDS011;51427;-27.442;153.014;2022-12-29T11:49:04;7.93;;;2.55;;
64915;SDS011;51427;-27.442;153.014;2022-12-29T11:51:53;7.10;;;2.50;;
64915;SDS011;51427;-27.442;153.014;2022-12-29T11:56:51;11.73;;;2.70;;
64915;SDS011;51427;-27.442;153.014;2022-12-29T12:04:29;5.47;;;2.38;;
64915;SDS011;51427;-27.442;153.014;2022-12-29T12:09:49;8.25;;;2.40;;
64915;SDS011;51427;-27.442;153.014;2022-12-29T12:12:28;9.75;;;2.30;;
64915;SDS011;51427;-27.442;153.014;2022-12-29T12:14:58;5.55;;;2.17;;
64915;SDS011;51427;-27.442;153.014;2022-12-29T12:17:39;7.22;;;1.80;;
64915;SDS011;51427;-27.442;153.014;2022-12-29T12:20:26;5.03;;;1.95;;
64915;SDS011;51427;-27.442;153.014;2022-12-29T12:23:12;3.28;;;1.88;;
64915;SDS011;51427;-27.442;153.014;2022-12-29T12:25:53;6.57;;;2.03;;
64915;SDS011;51427;-27.442;153.014;2022-12-29T12:28:52;4.93;;;1.63;;
64915;SDS011;51427;-27.442;153.014;2022-12-29T12:34:17;5.65;;;2.15;;
64915;SDS011;51427;-27.442;153.014;2022-12-29T12:36:53;7.60;;;2.20;;
64915;SDS011;51427;-27.442;153.014;2022-12-29T12:42:12;9.25;;;2.42;;
64915;SDS011;51427;-27.442;153.014;2022-12-29T12:58:43;9.30;;;2.72;;
64915;SDS011;51427;-27.442;153.014;2022-12-29T13:01:24;3.03;;;2.05;;
64915;SDS011;51427;-27.442;153.014;2022-12-29T13:04:21;5.75;;;2.40;;
64915;SDS011;51427;-27.442;153.014;2022-12-29T13:07:41;3.47;;;1.92;;
64915;SDS011;51427;-27.442;153.014;2022-12-29T13:09:58;5.15;;;2.40;;
64915;SDS011;51427;-27.442;153.014;2022-12-29T13:12:43;3.50;;;1.85;;
64915;SDS011;51427;-27.442;153.014;2022-12-29T13:23:49;5.18;;;1.90;;
64915;SDS011;51427;-27.442;153.014;2022-12-29T13:26:48;4.00;;;2.42;;
64915;SDS011;51427;-27.442;153.014;2022-12-29T13:29:23;5.82;;;1.90;;
64915;SDS011;51427;-27.442;153.014;2022-12-29T13:32:00;5.43;;;1.88;;
64915;SDS011;51427;-27.442;153.014;2022-12-29T13:34:55;5.07;;;1.85;;
64915;SDS011;51427;-27.442;153.014;2022-12-29T13:37:27;5.90;;;2.40;;
64915;SDS011;51427;-27.442;153.014;2022-12-29T13:40:00;5.57;;;2.45;;
64915;SDS011;51427;-27.442;153.014;2022-12-29T13:42:30;4.60;;;2.20;;
64915;SDS011;51427;-27.442;153.014;2022-12-29T13:45:03;6.00;;;2.13;;
64915;SDS011;51427;-27.442;153.014;2022-12-29T13:47:40;4.28;;;1.98;;
64915;SDS011;51427;-27.442;153.014;2022-12-29T13:50:14;5.15;;;2.28;;
64915;SDS011;51427;-27.442;153.014;2022-12-29T13:53:10;5.38;;;2.30;;
64915;SDS011;51427;-27.442;153.014;2022-12-29T13:56:38;9.50;;;2.45;;
64915;SDS011;51427;-27.442;153.014;2022-12-29T13:59:08;3.67;;;1.92;;
64915;SDS011;51427;-27.442;153.014;2022-12-29T14:02:02;5.25;;;2.00;;
64915;SDS011;51427;-27.442;153.014;2022-12-29T14:04:58;7.75;;;2.28;;
64915;SDS011;51427;-27.442;153.014;2022-12-29T14:07:28;4.47;;;2.10;;
64915;SDS011;51427;-27.442;153.014;2022-12-29T14:10:03;7.60;;;2.05;;
64915;SDS011;51427;-27.442;153.014;2022-12-29T14:15:19;7.88;;;2.20;;
64915;SDS011;51427;-27.442;153.014;2022-12-29T14:18:23;5.32;;;2.20;;
64915;SDS011;51427;-27.442;153.014;2022-12-29T14:20:55;6.30;;;2.50;;
64915;SDS011;51427;-27.442;153.014;2022-12-29T14:28:48;6.88;;;2.78;;
64915;SDS011;51427;-27.442;153.014;2022-12-29T14:36:36;7.40;;;2.20;;
64915;SDS011;51427;-27.442;153.014;2022-12-29T14:39:54;9.35;;;2.80;;
64915;SDS011;51427;-27.442;153.014;2022-12-29T14:41:59;5.28;;;2.08;;
64915;SDS011;51427;-27.442;153.014;2022-12-29T14:48:02;7.65;;;2.25;;
64915;SDS011;51427;-27.442;153.014;2022-12-29T14:50:24;7.57;;;2.55;;
64915;SDS011;51427;-27.442;153.014;2022-12-29T14:53:52;5.15;;;2.30;;
64915;SDS011;51427;-27.442;153.014;2022-12-29T14:56:18;6.43;;;2.17;;
64915;SDS011;51427;-27.442;153.014;2022-12-29T15:01:36;7.45;;;2.25;;
64915;SDS011;51427;-27.442;153.014;2022-12-29T15:04:15;7.05;;;2.22;;
64915;SDS011;51427;-27.442;153.014;2022-12-29T15:06:52;7.45;;;2.10;;
64915;SDS011;51427;-27.442;153.014;2022-12-29T15:11:55;6.53;;;2.22;;
64915;SDS011;51427;-27.442;153.014;2022-12-29T15:19:54;3.90;;;2.15;;
64915;SDS011;51427;-27.442;153.014;2022-12-29T15:22:23;5.72;;;1.92;;
64915;SDS011;51427;-27.442;153.014;2022-12-29T15:24:51;4.40;;;1.70;;
64915;SDS011;51427;-27.442;153.014;2022-12-29T15:27:21;5.18;;;2.13;;
64915;SDS011;51427;-27.442;153.014;2022-12-29T15:29:58;10.80;;;2.58;;
64915;SDS011;51427;-27.442;153.014;2022-12-29T15:32:29;7.63;;;1.90;;
64915;SDS011;51427;-27.442;153.014;2022-12-29T15:35:22;9.40;;;2.38;;
64915;SDS011;51427;-27.442;153.014;2022-12-29T15:37:52;5.93;;;2.03;;
64915;SDS011;51427;-27.442;153.014;2022-12-29T15:40:32;5.70;;;2.00;;
64915;SDS011;51427;-27.442;153.014;2022-12-29T15:43:07;7.20;;;1.95;;
64915;SDS011;51427;-27.442;153.014;2022-12-29T15:45:48;7.25;;;2.05;;
64915;SDS011;51427;-27.442;153.014;2022-12-29T15:48:21;8.82;;;2.17;;
64915;SDS011;51427;-27.442;153.014;2022-12-29T15:50:50;6.60;;;2.20;;
64915;SDS011;51427;-27.442;153.014;2022-12-29T15:53:20;5.50;;;2.00;;
64915;SDS011;51427;-27.442;153.014;2022-12-29T15:56:05;6.20;;;2.25;;
64915;SDS011;51427;-27.442;153.014;2022-12-29T15:58:40;7.22;;;2.50;;
64915;SDS011;51427;-27.442;153.014;2022-12-29T16:01:18;6.63;;;2.20;;
64915;SDS011;51427;-27.442;153.014;2022-12-29T16:03:46;7.57;;;2.53;;
64915;SDS011;51427;-27.442;153.014;2022-12-29T16:09:00;7.63;;;2.38;;
64915;SDS011;51427;-27.442;153.014;2022-12-29T16:11:39;5.18;;;2.30;;
64915;SDS011;51427;-27.442;153.014;2022-12-29T16:14:41;5.85;;;1.88;;
64915;SDS011;51427;-27.442;153.014;2022-12-29T16:17:13;6.07;;;2.30;;
64915;SDS011;51427;-27.442;153.014;2022-12-29T16:19:57;6.85;;;2.60;;
64915;SDS011;51427;-27.442;153.014;2022-12-29T16:24:59;5.63;;;2.05;;
64915;SDS011;51427;-27.442;153.014;2022-12-29T16:27:37;7.20;;;2.38;;
64915;SDS011;51427;-27.442;153.014;2022-12-29T16:30:16;10.02;;;2.25;;
64915;SDS011;51427;-27.442;153.014;2022-12-29T16:32:53;9.13;;;2.55;;
64915;SDS011;51427;-27.442;153.014;2022-12-29T16:35:28;7.65;;;2.63;;
64915;SDS011;51427;-27.442;153.014;2022-12-29T16:38:16;4.88;;;2.00;;
64915;SDS011;51427;-27.442;153.014;2022-12-29T16:43:28;7.35;;;2.35;;
64915;SDS011;51427;-27.442;153.014;2022-12-29T16:51:17;7.22;;;2.55;;
64915;SDS011;51427;-27.442;153.014;2022-12-29T16:53:50;7.03;;;2.42;;
64915;SDS011;51427;-27.442;153.014;2022-12-29T16:56:20;8.65;;;2.50;;
64915;SDS011;51427;-27.442;153.014;2022-12-29T16:59:01;11.27;;;2.40;;
64915;SDS011;51427;-27.442;153.014;2022-12-29T17:01:29;10.52;;;2.85;;
64915;SDS011;51427;-27.442;153.014;2022-12-29T17:03:58;10.63;;;2.90;;
64915;SDS011;51427;-27.442;153.014;2022-12-29T17:06:30;8.77;;;2.50;;
64915;SDS011;51427;-27.442;153.014;2022-12-29T17:08:58;7.80;;;2.42;;
64915;SDS011;51427;-27.442;153.014;2022-12-29T17:11:33;11.55;;;2.40;;